sensor_id;sensor_type;location;lat;lon;timestamp;pressure;altitude;pressure_sealevel;temperature;humidity
63321;BME280;49449;48.800;9.534;2023-04-08T00:01:45;98793.63;;;10.34;41.73
63321;BME280;49449;48.800;9.534;2023-04-08T00:04:13;98797.91;;;10.35;41.42
63321;BME280;49449;48.800;9.534;2023-04-08T00:06:41;98797.31;;;10.33;41.67
63321;BME280;49449;48.800;9.534;2023-04-08T00:09:10;98795.69;;;10.32;41.83
63321;BME280;49449;48.800;9.534;2023-04-08T00:11:39;98797.31;;;10.33;41.86
63321;BME280;49449;48.800;9.534;2023-04-08T00:14:07;98793.84;;;10.33;42.03
63321;BME280;49449;48.800;9.534;2023-04-08T00:16:34;98800.19;;;10.32;41.96
63321;BME280;49449;48.800;9.534;2023-04-08T00:19:02;98804.66;;;10.31;41.90
63321;BME280;49449;48.800;9.534;2023-04-08T00:21:31;98808.09;;;10.32;41.86
63321;BME280;49449;48.800;9.534;2023-04-08T00:23:59;98804.66;;;10.31;42.25
63321;BME280;49449;48.800;9.534;2023-04-08T00:26:28;98807.34;;;10.24;42.44
63321;BME280;49449;48.800;9.534;2023-04-08T00:28:56;98806.78;;;10.22;42.29
63321;BME280;49449;48.800;9.534;2023-04-08T00:31:24;98807.56;;;10.23;42.60
63321;BME280;49449;48.800;9.534;2023-04-08T00:33:52;98806.53;;;10.24;42.66
63321;BME280;49449;48.800;9.534;2023-04-08T00:36:20;98808.38;;;10.23;42.63
63321;BME280;49449;48.800;9.534;2023-04-08T00:38:48;98804.72;;;10.24;42.54
63321;BME280;49449;48.800;9.534;2023-04-08T00:41:16;98805.53;;;10.25;42.55
63321;BME280;49449;48.800;9.534;2023-04-08T00:43:45;98812.06;;;10.22;42.36
63321;BME280;49449;48.800;9.534;2023-04-08T00:46:12;98799.66;;;10.23;42.31
63321;BME280;49449;48.800;9.534;2023-04-08T00:48:40;98810.28;;;10.16;42.55
63321;BME280;49449;48.800;9.534;2023-04-08T00:51:08;98808.44;;;10.17;42.73
63321;BME280;49449;48.800;9.534;2023-04-08T00:53:36;98804.78;;;10.18;42.62
63321;BME280;49449;48.800;9.534;2023-04-08T00:56:04;98801.78;;;10.14;42.39
63321;BME280;49449;48.800;9.534;2023-04-08T00:58:32;98811.16;;;10.10;42.67
63321;BME280;49449;48.800;9.534;2023-04-08T01:01:04;98809.53;;;10.09;42.59
63321;BME280;49449;48.800;9.534;2023-04-08T01:03:39;98808.28;;;10.12;42.77
63321;BME280;49449;48.800;9.534;2023-04-08T01:06:12;98808.28;;;10.12;42.86
63321;BME280;49449;48.800;9.534;2023-04-08T01:08:42;98811.75;;;10.12;42.60
63321;BME280;49449;48.800;9.534;2023-04-08T01:11:12;98808.53;;;10.10;42.54
63321;BME280;49449;48.800;9.534;2023-04-08T01:13:41;98811.16;;;10.10;42.54
63321;BME280;49449;48.800;9.534;2023-04-08T01:16:14;98807.69;;;10.10;42.75
63321;BME280;49449;48.800;9.534;2023-04-08T01:18:43;98815.81;;;10.08;42.73
63321;BME280;49449;48.800;9.534;2023-04-08T01:21:12;98810.53;;;10.08;42.72
63321;BME280;49449;48.800;9.534;2023-04-08T01:23:50;98818.34;;;10.03;42.86
63321;BME280;49449;48.800;9.534;2023-04-08T01:26:23;98819.13;;;10.03;42.70
63321;BME280;49449;48.800;9.534;2023-04-08T01:28:55;98805.72;;;10.05;42.83
63321;BME280;49449;48.800;9.534;2023-04-08T01:31:24;98810.16;;;10.04;42.88
63321;BME280;49449;48.800;9.534;2023-04-08T01:33:54;98807.31;;;10.06;42.55
63321;BME280;49449;48.800;9.534;2023-04-08T01:36:24;98813.84;;;10.03;42.90
63321;BME280;49449;48.800;9.534;2023-04-08T01:38:52;98818.34;;;10.03;42.91
63321;BME280;49449;48.800;9.534;2023-04-08T01:41:21;98822.56;;;10.04;42.58
63321;BME280;49449;48.800;9.534;2023-04-08T01:43:50;98809.22;;;9.99;43.09
63321;BME280;49449;48.800;9.534;2023-04-08T01:46:19;98815.53;;;9.98;42.69
63321;BME280;49449;48.800;9.534;2023-04-08T01:48:48;98812.28;;;9.96;42.78
63321;BME280;49449;48.800;9.534;2023-04-08T01:51:17;98813.97;;;9.90;42.69
63321;BME280;49449;48.800;9.534;2023-04-08T01:53:45;98814.00;;;9.83;43.06
63321;BME280;49449;48.800;9.534;2023-04-08T01:56:14;98816.81;;;9.89;42.47
63321;BME280;49449;48.800;9.534;2023-04-08T01:58:47;98815.63;;;9.84;42.68
63321;BME280;49449;48.800;9.534;2023-04-08T02:01:20;98813.16;;;9.90;42.56
63321;BME280;49449;48.800;9.534;2023-04-08T02:03:50;98813.97;;;9.90;42.59
63321;BME280;49449;48.800;9.534;2023-04-08T02:06:21;98814.16;;;9.89;42.65
63321;BME280;49449;48.800;9.534;2023-04-08T02:08:49;98815.22;;;9.88;42.70
63321;BME280;49449;48.800;9.534;2023-04-08T02:11:17;98813.75;;;9.92;42.83
63321;BME280;49449;48.800;9.534;2023-04-08T02:13:47;98815.78;;;9.90;42.36
63321;BME280;49449;48.800;9.534;2023-04-08T02:16:18;98813.59;;;9.86;42.51
63321;BME280;49449;48.800;9.534;2023-04-08T02:18:54;98812.78;;;9.86;42.41
63321;BME280;49449;48.800;9.534;2023-04-08T02:21:26;98817.25;;;9.85;42.43
63321;BME280;49449;48.800;9.534;2023-04-08T02:23:59;98817.03;;;9.87;42.38
63321;BME280;49449;48.800;9.534;2023-04-08T02:26:32;98818.44;;;9.90;42.32
63321;BME280;49449;48.800;9.534;2023-04-08T02:29:03;98815.22;;;9.88;42.06
63321;BME280;49449;48.800;9.534;2023-04-08T02:31:32;98823.13;;;9.88;41.91
63321;BME280;49449;48.800;9.534;2023-04-08T02:34:00;98821.50;;;9.86;42.13
63321;BME280;49449;48.800;9.534;2023-04-08T02:36:30;98820.69;;;9.86;42.22
63321;BME280;49449;48.800;9.534;2023-04-08T02:38:59;98824.97;;;9.80;42.21
63321;BME280;49449;48.800;9.534;2023-04-08T02:41:27;98822.13;;;9.82;42.10
63321;BME280;49449;48.800;9.534;2023-04-08T02:43:55;98819.50;;;9.82;42.28
63321;BME280;49449;48.800;9.534;2023-04-08T02:46:24;98822.13;;;9.82;42.06
63321;BME280;49449;48.800;9.534;2023-04-08T02:48:52;98823.94;;;9.81;42.34
63321;BME280;49449;48.800;9.534;2023-04-08T02:51:20;98820.28;;;9.82;42.24
63321;BME280;49449;48.800;9.534;2023-04-08T02:53:48;98829.22;;;9.81;42.20
63321;BME280;49449;48.800;9.534;2023-04-08T02:56:15;98824.97;;;9.80;42.09
63321;BME280;49449;48.800;9.534;2023-04-08T02:58:43;98824.81;;;9.75;42.13
63321;BME280;49449;48.800;9.534;2023-04-08T03:01:11;98828.69;;;9.73;42.43
63321;BME280;49449;48.800;9.534;2023-04-08T03:03:40;98829.50;;;9.73;42.54
63321;BME280;49449;48.800;9.534;2023-04-08T03:06:08;98827.66;;;9.74;42.46
63321;BME280;49449;48.800;9.534;2023-04-08T03:08:36;98820.00;;;9.65;42.48
63321;BME280;49449;48.800;9.534;2023-04-08T03:11:04;98826.53;;;9.63;42.59
63321;BME280;49449;48.800;9.534;2023-04-08T03:13:31;98827.13;;;9.65;42.72
63321;BME280;49449;48.800;9.534;2023-04-08T03:15:59;98828.59;;;9.61;42.63
63321;BME280;49449;48.800;9.534;2023-04-08T03:18:27;98823.91;;;9.63;42.35
63321;BME280;49449;48.800;9.534;2023-04-08T03:20:56;98829.75;;;9.65;42.36
63321;BME280;49449;48.800;9.534;2023-04-08T03:23:24;98830.56;;;9.65;42.39
63321;BME280;49449;48.800;9.534;2023-04-08T03:25:52;98818.78;;;9.68;42.49
63321;BME280;49449;48.800;9.534;2023-04-08T03:28:19;98826.13;;;9.66;42.64
63321;BME280;49449;48.800;9.534;2023-04-08T03:30:49;98823.47;;;9.66;42.79
63321;BME280;49449;48.800;9.534;2023-04-08T03:33:17;98831.44;;;9.59;42.55
63321;BME280;49449;48.800;9.534;2023-04-08T03:35:45;98825.94;;;9.61;42.93
63321;BME280;49449;48.800;9.534;2023-04-08T03:38:14;98825.94;;;9.61;42.64
63321;BME280;49449;48.800;9.534;2023-04-08T03:40:42;98828.59;;;9.61;42.50
63321;BME280;49449;48.800;9.534;2023-04-08T03:43:10;98823.31;;;9.61;42.64
63321;BME280;49449;48.800;9.534;2023-04-08T03:45:38;98825.00;;;9.48;42.79
63321;BME280;49449;48.800;9.534;2023-04-08T03:48:06;98827.81;;;9.54;42.61
63321;BME280;49449;48.800;9.534;2023-04-08T03:50:34;98827.00;;;9.53;42.85
63321;BME280;49449;48.800;9.534;2023-04-08T03:53:02;98825.19;;;9.54;42.83
63321;BME280;49449;48.800;9.534;2023-04-08T03:55:31;98825.97;;;9.54;42.50
63321;BME280;49449;48.800;9.534;2023-04-08T03:57:59;98829.41;;;9.55;42.69
63321;BME280;49449;48.800;9.534;2023-04-08T04:00:27;98825.97;;;9.54;42.57
63321;BME280;49449;48.800;9.534;2023-04-08T04:02:54;98825.78;;;9.56;42.45
63321;BME280;49449;48.800;9.534;2023-04-08T04:05:22;98827.38;;;9.57;42.53
63321;BME280;49449;48.800;9.534;2023-04-08T04:07:50;98824.16;;;9.55;42.36
63321;BME280;49449;48.800;9.534;2023-04-08T04:10:17;98829.00;;;9.58;42.44
63321;BME280;49449;48.800;9.534;2023-04-08T04:12:48;98828.19;;;9.57;42.40
63321;BME280;49449;48.800;9.534;2023-04-08T04:15:16;98830.50;;;9.47;42.38
63321;BME280;49449;48.800;9.534;2023-04-08T04:17:46;98833.78;;;9.36;42.81
63321;BME280;49449;48.800;9.534;2023-04-08T04:20:14;98829.06;;;9.44;42.74
63321;BME280;49449;48.800;9.534;2023-04-08T04:22:42;98833.72;;;9.49;42.44
63321;BME280;49449;48.800;9.534;2023-04-08T04:25:10;98822.97;;;9.51;42.48
63321;BME280;49449;48.800;9.534;2023-04-08T04:27:37;98823.19;;;9.49;42.62
63321;BME280;49449;48.800;9.534;2023-04-08T04:30:07;98826.81;;;9.48;42.50
63321;BME280;49449;48.800;9.534;2023-04-08T04:32:35;98829.66;;;9.46;42.54
63321;BME280;49449;48.800;9.534;2023-04-08T04:35:04;98835.78;;;9.47;42.44
63321;BME280;49449;48.800;9.534;2023-04-08T04:37:31;98830.91;;;9.44;42.93
63321;BME280;49449;48.800;9.534;2023-04-08T04:39:59;98843.31;;;9.43;42.62
63321;BME280;49449;48.800;9.534;2023-04-08T04:42:27;98850.38;;;9.43;42.87
63321;BME280;49449;48.800;9.534;2023-04-08T04:44:55;98842.84;;;9.46;42.56
63321;BME280;49449;48.800;9.534;2023-04-08T04:47:24;98851.81;;;9.45;42.72
63321;BME280;49449;48.800;9.534;2023-04-08T04:49:52;98858.94;;;9.38;42.81
63321;BME280;49449;48.800;9.534;2023-04-08T04:52:19;98854.06;;;9.42;43.04
63321;BME280;49449;48.800;9.534;2023-04-08T04:54:47;98855.25;;;9.46;42.77
63321;BME280;49449;48.800;9.534;2023-04-08T04:57:15;98856.03;;;9.46;42.62
63321;BME280;49449;48.800;9.534;2023-04-08T04:59:42;98865.38;;;9.49;42.89
63321;BME280;49449;48.800;9.534;2023-04-08T05:02:10;98868.22;;;9.47;42.80
63321;BME280;49449;48.800;9.534;2023-04-08T05:04:39;98864.78;;;9.47;42.62
63321;BME280;49449;48.800;9.534;2023-04-08T05:07:07;98876.13;;;9.47;42.57
63321;BME280;49449;48.800;9.534;2023-04-08T05:09:34;98871.06;;;9.46;42.41
63321;BME280;49449;48.800;9.534;2023-04-08T05:12:02;98877.38;;;9.45;42.44
63321;BME280;49449;48.800;9.534;2023-04-08T05:14:30;98879.19;;;9.44;42.39
63321;BME280;49449;48.800;9.534;2023-04-08T05:16:58;98876.53;;;9.44;42.34
63321;BME280;49449;48.800;9.534;2023-04-08T05:19:26;98875.16;;;9.42;42.38
63321;BME280;49449;48.800;9.534;2023-04-08T05:21:55;98876.75;;;9.43;42.36
63321;BME280;49449;48.800;9.534;2023-04-08T05:24:23;98877.00;;;9.41;42.08
63321;BME280;49449;48.800;9.534;2023-04-08T05:26:51;98881.22;;;9.42;42.29
63321;BME280;49449;48.800;9.534;2023-04-08T05:29:18;98881.81;;;9.44;42.17
63321;BME280;49449;48.800;9.534;2023-04-08T05:31:47;98873.09;;;9.44;42.12
63321;BME280;49449;48.800;9.534;2023-04-08T05:34:15;98881.22;;;9.42;42.43
63321;BME280;49449;48.800;9.534;2023-04-08T05:36:48;98890.97;;;9.42;42.22
63321;BME280;49449;48.800;9.534;2023-04-08T05:39:19;98886.91;;;9.39;42.39
63321;BME280;49449;48.800;9.534;2023-04-08T05:41:46;98889.41;;;9.34;42.55
63321;BME280;49449;48.800;9.534;2023-04-08T05:44:14;98904.19;;;9.35;42.57
63321;BME280;49449;48.800;9.534;2023-04-08T05:46:42;98894.06;;;9.32;42.47
63321;BME280;49449;48.800;9.534;2023-04-08T05:49:10;98894.50;;;9.29;42.81
63321;BME280;49449;48.800;9.534;2023-04-08T05:51:38;98893.28;;;9.25;43.02
63321;BME280;49449;48.800;9.534;2023-04-08T05:54:06;98897.97;;;9.23;42.88
63321;BME280;49449;48.800;9.534;2023-04-08T05:56:35;98894.13;;;9.25;42.82
63321;BME280;49449;48.800;9.534;2023-04-08T05:59:03;98902.16;;;9.30;42.43
63321;BME280;49449;48.800;9.534;2023-04-08T06:01:31;98907.88;;;9.27;42.29
63321;BME280;49449;48.800;9.534;2023-04-08T06:03:58;98912.72;;;9.30;42.38
63321;BME280;49449;48.800;9.534;2023-04-08T06:06:26;98909.66;;;9.34;42.61
63321;BME280;49449;48.800;9.534;2023-04-08T06:08:55;98920.59;;;9.37;42.37
63321;BME280;49449;48.800;9.534;2023-04-08T06:11:23;98916.38;;;9.36;42.35
63321;BME280;49449;48.800;9.534;2023-04-08T06:13:52;98912.69;;;9.37;42.09
63321;BME280;49449;48.800;9.534;2023-04-08T06:16:19;98913.94;;;9.35;42.14
63321;BME280;49449;48.800;9.534;2023-04-08T06:18:47;98915.78;;;9.27;42.45
63321;BME280;49449;48.800;9.534;2023-04-08T06:21:15;98909.09;;;9.25;42.42
63321;BME280;49449;48.800;9.534;2023-04-08T06:23:43;98916.78;;;9.33;42.25
63321;BME280;49449;48.800;9.534;2023-04-08T06:26:11;98919.97;;;9.42;42.25
63321;BME280;49449;48.800;9.534;2023-04-08T06:28:39;98926.44;;;9.46;42.37
63321;BME280;49449;48.800;9.534;2023-04-08T06:31:08;98922.81;;;9.47;42.37
63321;BME280;49449;48.800;9.534;2023-04-08T06:33:35;98925.81;;;9.51;42.73
63321;BME280;49449;48.800;9.534;2023-04-08T06:36:04;98926.22;;;9.54;42.74
63321;BME280;49449;48.800;9.534;2023-04-08T06:38:32;98931.88;;;9.58;42.30
63321;BME280;49449;48.800;9.534;2023-04-08T06:41:01;98934.31;;;9.59;42.26
63321;BME280;49449;48.800;9.534;2023-04-08T06:43:29;98935.69;;;9.62;41.84
63321;BME280;49449;48.800;9.534;2023-04-08T06:45:57;98945.03;;;9.64;41.83
63321;BME280;49449;48.800;9.534;2023-04-08T06:48:27;98942.78;;;9.68;41.87
63321;BME280;49449;48.800;9.534;2023-04-08T06:50:56;98941.53;;;9.71;42.27
63321;BME280;49449;48.800;9.534;2023-04-08T06:53:24;98940.72;;;9.77;41.89
63321;BME280;49449;48.800;9.534;2023-04-08T06:55:51;98942.69;;;9.81;42.13
63321;BME280;49449;48.800;9.534;2023-04-08T06:58:19;98939.44;;;9.86;41.73
63321;BME280;49449;48.800;9.534;2023-04-08T07:00:47;98937.56;;;9.93;41.67
63321;BME280;49449;48.800;9.534;2023-04-08T07:03:15;98940.63;;;9.90;41.62
63321;BME280;49449;48.800;9.534;2023-04-08T07:05:44;98935.31;;;9.97;41.50
63321;BME280;49449;48.800;9.534;2023-04-08T07:08:12;98939.75;;;10.03;41.74
63321;BME280;49449;48.800;9.534;2023-04-08T07:10:40;98947.22;;;10.06;41.49
63321;BME280;49449;48.800;9.534;2023-04-08T07:13:08;98946.00;;;10.09;41.47
63321;BME280;49449;48.800;9.534;2023-04-08T07:15:35;98943.97;;;10.11;41.76
63321;BME280;49449;48.800;9.534;2023-04-08T07:18:03;98946.38;;;10.12;41.27
63321;BME280;49449;48.800;9.534;2023-04-08T07:20:31;98946.38;;;10.12;40.84
63321;BME280;49449;48.800;9.534;2023-04-08T07:23:02;98943.16;;;10.10;41.02
63321;BME280;49449;48.800;9.534;2023-04-08T07:25:31;98950.41;;;10.15;41.15
63321;BME280;49449;48.800;9.534;2023-04-08T07:27:59;98953.28;;;10.13;41.53
63321;BME280;49449;48.800;9.534;2023-04-08T07:30:27;98955.16;;;10.06;41.16
63321;BME280;49449;48.800;9.534;2023-04-08T07:32:55;98950.09;;;10.04;41.47
63321;BME280;49449;48.800;9.534;2023-04-08T07:35:24;98957.38;;;10.09;41.39
63321;BME280;49449;48.800;9.534;2023-04-08T07:37:51;98958.63;;;10.07;41.81
63321;BME280;49449;48.800;9.534;2023-04-08T07:40:21;98964.13;;;10.05;41.36
63321;BME280;49449;48.800;9.534;2023-04-08T07:42:49;98965.75;;;9.99;41.16
63321;BME280;49449;48.800;9.534;2023-04-08T07:45:17;98971.84;;;10.00;41.15
63321;BME280;49449;48.800;9.534;2023-04-08T07:47:45;98970.59;;;10.02;41.08
63321;BME280;49449;48.800;9.534;2023-04-08T07:50:13;98971.59;;;10.08;40.87
63321;BME280;49449;48.800;9.534;2023-04-08T07:52:41;98977.41;;;10.17;40.66
63321;BME280;49449;48.800;9.534;2023-04-08T07:55:08;98975.78;;;10.22;40.99
63321;BME280;49449;48.800;9.534;2023-04-08T07:57:38;98981.59;;;10.31;40.66
63321;BME280;49449;48.800;9.534;2023-04-08T08:00:07;98987.16;;;10.16;40.55
63321;BME280;49449;48.800;9.534;2023-04-08T08:02:34;98984.06;;;10.26;39.88
63321;BME280;49449;48.800;9.534;2023-04-08T08:05:02;98989.34;;;10.26;40.79
63321;BME280;49449;48.800;9.534;2023-04-08T08:07:31;98980.34;;;10.34;39.61
63321;BME280;49449;48.800;9.534;2023-04-08T08:09:59;98975.03;;;10.40;40.08
63321;BME280;49449;48.800;9.534;2023-04-08T08:12:29;98979.97;;;10.55;39.57
63321;BME280;49449;48.800;9.534;2023-04-08T08:14:59;98979.88;;;10.69;38.95
63321;BME280;49449;48.800;9.534;2023-04-08T08:17:26;98977.38;;;10.74;39.04
63321;BME280;49449;48.800;9.534;2023-04-08T08:19:56;98980.50;;;10.89;38.90
63321;BME280;49449;48.800;9.534;2023-04-08T08:22:24;98982.44;;;11.00;38.75
63321;BME280;49449;48.800;9.534;2023-04-08T08:24:54;98981.91;;;11.10;38.48
63321;BME280;49449;48.800;9.534;2023-04-08T08:27:23;98979.78;;;11.19;38.88
63321;BME280;49449;48.800;9.534;2023-04-08T08:29:51;98980.50;;;11.26;37.64
63321;BME280;49449;48.800;9.534;2023-04-08T08:32:20;98981.19;;;11.22;36.87
63321;BME280;49449;48.800;9.534;2023-04-08T08:34:48;98975.69;;;11.23;36.11
63321;BME280;49449;48.800;9.534;2023-04-08T08:37:15;98985.50;;;10.97;36.13
63321;BME280;49449;48.800;9.534;2023-04-08T08:39:43;98995.88;;;10.99;36.59
63321;BME280;49449;48.800;9.534;2023-04-08T08:42:18;98986.53;;;11.15;36.30
63321;BME280;49449;48.800;9.534;2023-04-08T08:44:47;98998.75;;;11.16;36.63
63321;BME280;49449;48.800;9.534;2023-04-08T08:47:15;98995.34;;;11.27;36.52
63321;BME280;49449;48.800;9.534;2023-04-08T08:49:44;98992.66;;;11.34;36.36
63321;BME280;49449;48.800;9.534;2023-04-08T08:52:14;98995.06;;;11.35;36.02
63321;BME280;49449;48.800;9.534;2023-04-08T08:54:43;99002.84;;;11.12;35.17
63321;BME280;49449;48.800;9.534;2023-04-08T08:57:17;99006.22;;;11.19;35.88
63321;BME280;49449;48.800;9.534;2023-04-08T08:59:45;99003.78;;;10.99;35.72
63321;BME280;49449;48.800;9.534;2023-04-08T09:02:23;99006.00;;;11.02;40.59
63321;BME280;49449;48.800;9.534;2023-04-08T09:04:58;99008.75;;;11.32;40.26
63321;BME280;49449;48.800;9.534;2023-04-08T09:07:27;98998.41;;;11.61;38.82
63321;BME280;49449;48.800;9.534;2023-04-08T09:09:57;99004.88;;;11.65;37.62
63321;BME280;49449;48.800;9.534;2023-04-08T09:12:25;98992.28;;;11.79;36.92
63321;BME280;49449;48.800;9.534;2023-04-08T09:15:04;99003.03;;;11.84;35.66
63321;BME280;49449;48.800;9.534;2023-04-08T09:17:33;99002.38;;;11.89;36.07
63321;BME280;49449;48.800;9.534;2023-04-08T09:20:08;99001.59;;;12.00;36.34
63321;BME280;49449;48.800;9.534;2023-04-08T09:22:55;99003.47;;;12.11;36.97
63321;BME280;49449;48.800;9.534;2023-04-08T09:25:24;99002.03;;;12.27;35.25
63321;BME280;49449;48.800;9.534;2023-04-08T09:27:52;99001.31;;;12.32;34.82
63321;BME280;49449;48.800;9.534;2023-04-08T09:30:22;98998.56;;;12.39;35.50
63321;BME280;49449;48.800;9.534;2023-04-08T09:32:51;98996.41;;;12.47;34.52
63321;BME280;49449;48.800;9.534;2023-04-08T09:35:21;99004.59;;;12.58;35.17
63321;BME280;49449;48.800;9.534;2023-04-08T09:37:49;98995.03;;;12.68;34.23
63321;BME280;49449;48.800;9.534;2023-04-08T09:40:18;98999.91;;;12.83;33.21
63321;BME280;49449;48.800;9.534;2023-04-08T09:42:47;98991.94;;;12.95;33.13
63321;BME280;49449;48.800;9.534;2023-04-08T09:45:17;98999.56;;;13.03;32.65
63321;BME280;49449;48.800;9.534;2023-04-08T09:47:54;99002.66;;;12.88;32.28
63321;BME280;49449;48.800;9.534;2023-04-08T09:50:26;98999.00;;;12.89;31.81
63321;BME280;49449;48.800;9.534;2023-04-08T09:53:00;98994.47;;;12.78;31.01
63321;BME280;49449;48.800;9.534;2023-04-08T09:55:29;98997.34;;;12.65;32.32
63321;BME280;49449;48.800;9.534;2023-04-08T09:58:03;99000.66;;;12.60;32.82
63321;BME280;49449;48.800;9.534;2023-04-08T10:00:37;98998.72;;;12.56;32.15
63321;BME280;49449;48.800;9.534;2023-04-08T10:03:09;98985.34;;;12.50;31.73
63321;BME280;49449;48.800;9.534;2023-04-08T10:05:44;98991.56;;;12.32;30.17
63321;BME280;49449;48.800;9.534;2023-04-08T10:08:13;98994.97;;;12.21;31.66
63321;BME280;49449;48.800;9.534;2023-04-08T10:10:42;98990.25;;;12.11;31.01
63321;BME280;49449;48.800;9.534;2023-04-08T10:13:11;98996.66;;;12.04;33.46
63321;BME280;49449;48.800;9.534;2023-04-08T10:15:39;98994.34;;;12.07;31.99
63321;BME280;49449;48.800;9.534;2023-04-08T10:18:30;98997.22;;;12.06;31.58
63321;BME280;49449;48.800;9.534;2023-04-08T10:21:03;98989.63;;;12.09;31.60
63321;BME280;49449;48.800;9.534;2023-04-08T10:23:53;98988.78;;;11.85;33.22
63321;BME280;49449;48.800;9.534;2023-04-08T10:26:32;98994.91;;;11.79;33.27
63321;BME280;49449;48.800;9.534;2023-04-08T10:32:07;98987.38;;;11.83;33.94
63321;BME280;49449;48.800;9.534;2023-04-08T10:34:50;98989.22;;;11.82;33.59
63321;BME280;49449;48.800;9.534;2023-04-08T10:37:20;98991.66;;;11.84;34.05
63321;BME280;49449;48.800;9.534;2023-04-08T10:39:48;98992.38;;;11.72;33.95
63321;BME280;49449;48.800;9.534;2023-04-08T10:42:17;99007.22;;;11.73;34.81
63321;BME280;49449;48.800;9.534;2023-04-08T10:44:45;98997.00;;;11.77;34.47
63321;BME280;49449;48.800;9.534;2023-04-08T10:47:13;99000.31;;;11.72;34.85
63321;BME280;49449;48.800;9.534;2023-04-08T10:49:40;99004.44;;;11.68;34.20
63321;BME280;49449;48.800;9.534;2023-04-08T10:52:09;99006.84;;;11.70;34.05
63321;BME280;49449;48.800;9.534;2023-04-08T10:54:45;99004.13;;;11.76;35.35
63321;BME280;49449;48.800;9.534;2023-04-08T10:57:15;98998.78;;;11.83;33.90
63321;BME280;49449;48.800;9.534;2023-04-08T10:59:49;99003.09;;;11.77;33.08
63321;BME280;49449;48.800;9.534;2023-04-08T11:02:17;99002.72;;;11.74;34.26
63321;BME280;49449;48.800;9.534;2023-04-08T11:04:45;99005.09;;;11.82;34.05
63321;BME280;49449;48.800;9.534;2023-04-08T11:07:13;99007.44;;;11.72;31.64
63321;BME280;49449;48.800;9.534;2023-04-08T11:09:42;99000.91;;;11.74;32.11
63321;BME280;49449;48.800;9.534;2023-04-08T11:12:11;99000.31;;;11.72;30.92
63321;BME280;49449;48.800;9.534;2023-04-08T11:14:39;98995.69;;;11.68;29.46
63321;BME280;49449;48.800;9.534;2023-04-08T11:17:08;99003.72;;;11.61;30.37
63321;BME280;49449;48.800;9.534;2023-04-08T11:19:36;99005.78;;;11.59;29.81
63321;BME280;49449;48.800;9.534;2023-04-08T11:22:04;99000.91;;;11.56;29.15
63321;BME280;49449;48.800;9.534;2023-04-08T11:24:35;99000.47;;;11.59;29.55
63321;BME280;49449;48.800;9.534;2023-04-08T11:27:04;99004.63;;;11.55;29.90
63321;BME280;49449;48.800;9.534;2023-04-08T11:29:32;99005.03;;;11.52;29.47
63321;BME280;49449;48.800;9.534;2023-04-08T11:32:01;99003.06;;;11.47;29.17
63321;BME280;49449;48.800;9.534;2023-04-08T11:34:29;99001.25;;;11.48;28.99
63321;BME280;49449;48.800;9.534;2023-04-08T11:36:57;99005.91;;;11.46;28.93
63321;BME280;49449;48.800;9.534;2023-04-08T11:39:24;99002.84;;;11.49;30.64
63321;BME280;49449;48.800;9.534;2023-04-08T11:41:52;99006.53;;;11.48;30.68
63321;BME280;49449;48.800;9.534;2023-04-08T11:44:30;99007.63;;;11.40;29.93
63321;BME280;49449;48.800;9.534;2023-04-08T11:46:58;99009.09;;;11.36;30.33
63321;BME280;49449;48.800;9.534;2023-04-08T11:49:42;99006.31;;;11.31;29.31
63321;BME280;49449;48.800;9.534;2023-04-08T11:52:11;99009.91;;;11.36;29.37
63321;BME280;49449;48.800;9.534;2023-04-08T11:54:40;99012.31;;;11.38;28.77
63321;BME280;49449;48.800;9.534;2023-04-08T11:57:09;99014.81;;;11.33;28.71
63321;BME280;49449;48.800;9.534;2023-04-08T11:59:38;99009.31;;;11.34;29.89
63321;BME280;49449;48.800;9.534;2023-04-08T12:02:06;99021.94;;;11.14;29.24
63321;BME280;49449;48.800;9.534;2023-04-08T12:04:33;99034.88;;;11.22;30.86
63321;BME280;49449;48.800;9.534;2023-04-08T12:07:01;99023.84;;;11.07;30.98
63321;BME280;49449;48.800;9.534;2023-04-08T12:09:29;99031.22;;;11.23;29.24
63321;BME280;49449;48.800;9.534;2023-04-08T12:11:57;99031.75;;;11.32;30.61
63321;BME280;49449;48.800;9.534;2023-04-08T12:14:25;99036.94;;;11.38;29.81
63321;BME280;49449;48.800;9.534;2023-04-08T12:16:54;99034.28;;;11.38;29.04
63321;BME280;49449;48.800;9.534;2023-04-08T12:19:22;99037.16;;;11.37;28.96
63321;BME280;49449;48.800;9.534;2023-04-08T12:21:50;99023.28;;;11.42;30.03
63321;BME280;49449;48.800;9.534;2023-04-08T12:24:18;99023.84;;;11.44;29.97
63321;BME280;49449;48.800;9.534;2023-04-08T12:26:46;99021.00;;;11.45;30.28
63321;BME280;49449;48.800;9.534;2023-04-08T12:29:14;99027.56;;;11.43;29.96
63321;BME280;49449;48.800;9.534;2023-04-08T12:31:42;99034.00;;;11.47;30.20
63321;BME280;49449;48.800;9.534;2023-04-08T12:34:11;99033.56;;;11.50;29.61
63321;BME280;49449;48.800;9.534;2023-04-08T12:36:39;99028.06;;;11.51;29.46
63321;BME280;49449;48.800;9.534;2023-04-08T12:39:08;99026.44;;;11.50;29.95
63321;BME280;49449;48.800;9.534;2023-04-08T12:41:36;99028.88;;;11.52;29.62
63321;BME280;49449;48.800;9.534;2023-04-08T12:44:03;99027.59;;;11.54;29.76
63321;BME280;49449;48.800;9.534;2023-04-08T12:46:31;99034.91;;;11.41;28.98
63321;BME280;49449;48.800;9.534;2023-04-08T12:48:59;99039.59;;;11.20;29.63
63321;BME280;49449;48.800;9.534;2023-04-08T12:51:30;99032.38;;;11.27;29.72
63321;BME280;49449;48.800;9.534;2023-04-08T12:53:59;99037.03;;;11.32;29.88
63321;BME280;49449;48.800;9.534;2023-04-08T12:56:27;99032.38;;;11.27;29.01
63321;BME280;49449;48.800;9.534;2023-04-08T12:58:55;99033.41;;;11.26;29.43
63321;BME280;49449;48.800;9.534;2023-04-08T13:01:23;99028.78;;;11.22;30.61
63321;BME280;49449;48.800;9.534;2023-04-08T13:03:51;99029.81;;;11.21;30.54
63321;BME280;49449;48.800;9.534;2023-04-08T13:06:19;99027.53;;;11.24;32.21
63321;BME280;49449;48.800;9.534;2023-04-08T13:08:48;99027.31;;;11.26;30.69
63321;BME280;49449;48.800;9.534;2023-04-08T13:11:16;99022.47;;;11.04;30.17
63321;BME280;49449;48.800;9.534;2023-04-08T13:13:44;99027.53;;;11.06;30.50
63321;BME280;49449;48.800;9.534;2023-04-08T13:16:13;99022.63;;;11.09;30.71
63321;BME280;49449;48.800;9.534;2023-04-08T13:18:41;99016.81;;;11.19;31.72